sensor_id;sensor_type;location;lat;lon;timestamp;pressure;altitude;pressure_sealevel;temperature;humidity
28935;BME280;16044;52.726;-2.108;2023-04-06T00:01:00;100328.84;;;9.13;100.00
28935;BME280;16044;52.726;-2.108;2023-04-06T00:03:27;100326.31;;;9.12;100.00
28935;BME280;16044;52.726;-2.108;2023-04-06T00:05:54;100320.72;;;9.13;100.00
28935;BME280;16044;52.726;-2.108;2023-04-06T00:08:22;100318.34;;;9.10;100.00
28935;BME280;16044;52.726;-2.108;2023-04-06T00:10:50;100324.97;;;9.08;100.00
28935;BME280;16044;52.726;-2.108;2023-04-06T00:13:17;100313.97;;;9.09;100.00
28935;BME280;16044;52.726;-2.108;2023-04-06T00:15:44;100321.72;;;9.12;100.00
28935;BME280;16044;52.726;-2.108;2023-04-06T00:18:11;100307.22;;;9.13;100.00
28935;BME280;16044;52.726;-2.108;2023-04-06T00:20:38;100309.75;;;9.15;100.00
28935;BME280;16044;52.726;-2.108;2023-04-06T00:23:05;100302.47;;;9.15;100.00
28935;BME280;16044;52.726;-2.108;2023-04-06T00:25:32;100302.97;;;9.19;100.00
28935;BME280;16044;52.726;-2.108;2023-04-06T00:27:59;100300.44;;;9.17;100.00
28935;BME280;16044;52.726;-2.108;2023-04-06T00:30:26;100294.84;;;9.19;100.00
28935;BME280;16044;52.726;-2.108;2023-04-06T00:32:53;100292.31;;;9.17;100.00
28935;BME280;16044;52.726;-2.108;2023-04-06T00:35:20;100298.56;;;9.18;100.00
28935;BME280;16044;52.726;-2.108;2023-04-06T00:37:47;100296.03;;;9.16;100.00
28935;BME280;16044;52.726;-2.108;2023-04-06T00:40:15;100299.41;;;9.18;100.00
28935;BME280;16044;52.726;-2.108;2023-04-06T00:42:42;100287.06;;;9.16;100.00
28935;BME280;16044;52.726;-2.108;2023-04-06T00:45:10;100286.91;;;9.17;100.00
28935;BME280;16044;52.726;-2.108;2023-04-06T00:47:37;100281.66;;;9.16;100.00
28935;BME280;16044;52.726;-2.108;2023-04-06T00:50:05;100284.03;;;9.19;100.00
28935;BME280;16044;52.726;-2.108;2023-04-06T00:52:33;100279.81;;;9.16;100.00
28935;BME280;16044;52.726;-2.108;2023-04-06T00:55:02;100277.28;;;9.15;100.00
28935;BME280;16044;52.726;-2.108;2023-04-06T00:57:31;100274.41;;;9.16;100.00
28935;BME280;16044;52.726;-2.108;2023-04-06T00:59:58;100275.25;;;9.17;100.00
28935;BME280;16044;52.726;-2.108;2023-04-06T01:02:25;100270.03;;;9.15;100.00
28935;BME280;16044;52.726;-2.108;2023-04-06T01:04:53;100265.63;;;9.14;100.00
28935;BME280;16044;52.726;-2.108;2023-04-06T01:07:20;100273.06;;;9.12;100.00
28935;BME280;16044;52.726;-2.108;2023-04-06T01:09:48;100263.28;;;9.11;100.00
28935;BME280;16044;52.726;-2.108;2023-04-06T01:12:15;100263.06;;;9.13;100.00
28935;BME280;16044;52.726;-2.108;2023-04-06T01:14:42;100266.28;;;9.16;100.00
28935;BME280;16044;52.726;-2.108;2023-04-06T01:17:09;100264.78;;;9.14;100.00
28935;BME280;16044;52.726;-2.108;2023-04-06T01:19:36;100258.38;;;9.15;100.00
28935;BME280;16044;52.726;-2.108;2023-04-06T01:22:03;100267.31;;;9.15;100.00
28935;BME280;16044;52.726;-2.108;2023-04-06T01:24:31;100261.38;;;9.20;100.00
28935;BME280;16044;52.726;-2.108;2023-04-06T01:26:58;100259.88;;;9.17;100.00
28935;BME280;16044;52.726;-2.108;2023-04-06T01:29:25;100249.06;;;9.17;100.00
28935;BME280;16044;52.726;-2.108;2023-04-06T01:31:52;100248.38;;;9.15;100.00
28935;BME280;16044;52.726;-2.108;2023-04-06T01:34:19;100244.84;;;9.15;100.00
28935;BME280;16044;52.726;-2.108;2023-04-06T01:36:47;100241.78;;;9.18;100.00
28935;BME280;16044;52.726;-2.108;2023-04-06T01:39:14;100237.91;;;9.21;100.00
28935;BME280;16044;52.726;-2.108;2023-04-06T01:41:41;100238.22;;;9.17;100.00
28935;BME280;16044;52.726;-2.108;2023-04-06T01:44:08;100223.69;;;9.18;100.00
28935;BME280;16044;52.726;-2.108;2023-04-06T01:46:35;100228.25;;;9.18;100.00
28935;BME280;16044;52.726;-2.108;2023-04-06T01:49:02;100219.81;;;9.21;100.00
28935;BME280;16044;52.726;-2.108;2023-04-06T01:51:29;100216.44;;;9.19;100.00
28935;BME280;16044;52.726;-2.108;2023-04-06T01:53:56;100216.44;;;9.19;100.00
28935;BME280;16044;52.726;-2.108;2023-04-06T01:56:23;100214.22;;;9.23;100.00
28935;BME280;16044;52.726;-2.108;2023-04-06T01:58:51;100213.72;;;9.19;100.00
28935;BME280;16044;52.726;-2.108;2023-04-06T02:01:18;100202.03;;;9.18;100.00
28935;BME280;16044;52.726;-2.108;2023-04-06T02:03:45;100209.16;;;9.20;100.00
28935;BME280;16044;52.726;-2.108;2023-04-06T02:06:12;100212.53;;;9.22;100.00
28935;BME280;16044;52.726;-2.108;2023-04-06T02:08:39;100207.94;;;9.22;100.00
28935;BME280;16044;52.726;-2.108;2023-04-06T02:11:06;100201.72;;;9.22;100.00
28935;BME280;16044;52.726;-2.108;2023-04-06T02:13:33;100195.47;;;9.21;100.00
28935;BME280;16044;52.726;-2.108;2023-04-06T02:16:00;100194.63;;;9.21;100.00
28935;BME280;16044;52.726;-2.108;2023-04-06T02:18:31;100200.03;;;9.21;100.00
28935;BME280;16044;52.726;-2.108;2023-04-06T02:20:58;100191.72;;;9.22;100.00
28935;BME280;16044;52.726;-2.108;2023-04-06T02:23:25;100190.91;;;9.22;100.00
28935;BME280;16044;52.726;-2.108;2023-04-06T02:25:53;100186.31;;;9.22;100.00
28935;BME280;16044;52.726;-2.108;2023-04-06T02:28:20;100190.91;;;9.22;100.00
28935;BME280;16044;52.726;-2.108;2023-04-06T02:30:47;100181.94;;;9.21;100.00
28935;BME280;16044;52.726;-2.108;2023-04-06T02:33:14;100185.47;;;9.22;100.00
28935;BME280;16044;52.726;-2.108;2023-04-06T02:35:41;100173.47;;;9.24;100.00
28935;BME280;16044;52.726;-2.108;2023-04-06T02:38:08;100175.69;;;9.21;100.00
28935;BME280;16044;52.726;-2.108;2023-04-06T02:40:35;100174.00;;;9.20;100.00
28935;BME280;16044;52.726;-2.108;2023-04-06T02:43:02;100166.56;;;9.22;100.00
28935;BME280;16044;52.726;-2.108;2023-04-06T02:45:28;100170.47;;;9.19;100.00
28935;BME280;16044;52.726;-2.108;2023-04-06T02:47:55;100160.97;;;9.23;100.00
28935;BME280;16044;52.726;-2.108;2023-04-06T02:50:22;100158.44;;;9.22;100.00
28935;BME280;16044;52.726;-2.108;2023-04-06T02:52:49;100154.06;;;9.21;100.00
28935;BME280;16044;52.726;-2.108;2023-04-06T02:55:17;100151.16;;;9.22;100.00
28935;BME280;16044;52.726;-2.108;2023-04-06T02:57:47;100156.94;;;9.19;100.00
28935;BME280;16044;52.726;-2.108;2023-04-06T03:00:14;100148.84;;;9.19;100.00
28935;BME280;16044;52.726;-2.108;2023-04-06T03:02:42;100158.78;;;9.18;100.00
28935;BME280;16044;52.726;-2.108;2023-04-06T03:05:09;100155.41;;;9.16;100.00
28935;BME280;16044;52.726;-2.108;2023-04-06T03:07:36;100153.75;;;9.15;100.00
28935;BME280;16044;52.726;-2.108;2023-04-06T03:10:03;100144.91;;;9.22;100.00
28935;BME280;16044;52.726;-2.108;2023-04-06T03:12:30;100144.91;;;9.22;100.00
28935;BME280;16044;52.726;-2.108;2023-04-06T03:14:57;100142.38;;;9.20;100.00
28935;BME280;16044;52.726;-2.108;2023-04-06T03:17:24;100135.66;;;9.16;100.00
28935;BME280;16044;52.726;-2.108;2023-04-06T03:19:51;100124.66;;;9.17;100.00
28935;BME280;16044;52.726;-2.108;2023-04-06T03:22:19;100131.75;;;9.18;100.00
28935;BME280;16044;52.726;-2.108;2023-04-06T03:24:47;100122.97;;;9.16;100.00
28935;BME280;16044;52.726;-2.108;2023-04-06T03:27:14;100124.84;;;9.16;100.00
28935;BME280;16044;52.726;-2.108;2023-04-06T03:29:41;100119.59;;;9.14;100.00
28935;BME280;16044;52.726;-2.108;2023-04-06T03:32:08;100110.47;;;9.15;100.00
28935;BME280;16044;52.726;-2.108;2023-04-06T03:34:37;100113.19;;;9.15;100.00
28935;BME280;16044;52.726;-2.108;2023-04-06T03:37:05;100109.81;;;9.13;100.00
28935;BME280;16044;52.726;-2.108;2023-04-06T03:39:36;100105.06;;;9.15;100.00
28935;BME280;16044;52.726;-2.108;2023-04-06T03:42:03;100096.28;;;9.13;100.00
28935;BME280;16044;52.726;-2.108;2023-04-06T03:44:30;100096.97;;;9.15;100.00
28935;BME280;16044;52.726;-2.108;2023-04-06T03:46:57;100101.34;;;9.16;100.00
28935;BME280;16044;52.726;-2.108;2023-04-06T03:49:27;100097.63;;;9.17;100.00
28935;BME280;16044;52.726;-2.108;2023-04-06T03:51:55;100087.81;;;9.16;100.00
28935;BME280;16044;52.726;-2.108;2023-04-06T03:54:23;100089.50;;;9.17;100.00
28935;BME280;16044;52.726;-2.108;2023-04-06T03:56:50;100083.94;;;9.19;100.00
28935;BME280;16044;52.726;-2.108;2023-04-06T03:59:17;100075.66;;;9.21;100.00
28935;BME280;16044;52.726;-2.108;2023-04-06T04:01:44;100085.44;;;9.22;100.00
28935;BME280;16044;52.726;-2.108;2023-04-06T04:04:11;100080.03;;;9.22;100.00
28935;BME280;16044;52.726;-2.108;2023-04-06T04:06:38;100075.44;;;9.22;100.00
28935;BME280;16044;52.726;-2.108;2023-04-06T04:09:05;100067.53;;;9.21;100.00
28935;BME280;16044;52.726;-2.108;2023-04-06T04:11:32;100075.81;;;9.19;100.00
28935;BME280;16044;52.726;-2.108;2023-04-06T04:13:59;100082.72;;;9.22;100.00
28935;BME280;16044;52.726;-2.108;2023-04-06T04:16:26;100073.94;;;9.20;100.00
28935;BME280;16044;52.726;-2.108;2023-04-06T04:18:53;100068.19;;;9.23;100.00
28935;BME280;16044;52.726;-2.108;2023-04-06T04:21:20;100069.03;;;9.23;100.00
28935;BME280;16044;52.726;-2.108;2023-04-06T04:23:47;100067.81;;;9.26;100.00
28935;BME280;16044;52.726;-2.108;2023-04-06T04:26:14;100073.06;;;9.27;100.00
28935;BME280;16044;52.726;-2.108;2023-04-06T04:28:41;100074.75;;;9.28;100.00
28935;BME280;16044;52.726;-2.108;2023-04-06T04:31:08;100078.63;;;9.26;100.00
28935;BME280;16044;52.726;-2.108;2023-04-06T04:33:35;100084.53;;;9.29;100.00
28935;BME280;16044;52.726;-2.108;2023-04-06T04:36:03;100083.69;;;9.29;100.00
28935;BME280;16044;52.726;-2.108;2023-04-06T04:38:30;100085.75;;;9.27;100.00
28935;BME280;16044;52.726;-2.108;2023-04-06T04:40:57;100090.97;;;9.28;100.00
28935;BME280;16044;52.726;-2.108;2023-04-06T04:43:24;100095.84;;;9.33;100.00
28935;BME280;16044;52.726;-2.108;2023-04-06T04:45:51;100093.47;;;9.30;100.00
28935;BME280;16044;52.726;-2.108;2023-04-06T04:48:19;100093.47;;;9.30;100.00
28935;BME280;16044;52.726;-2.108;2023-04-06T04:50:46;100091.81;;;9.29;100.00
28935;BME280;16044;52.726;-2.108;2023-04-06T04:53:13;100096.19;;;9.30;100.00
28935;BME280;16044;52.726;-2.108;2023-04-06T04:55:39;100089.09;;;9.29;100.00
28935;BME280;16044;52.726;-2.108;2023-04-06T04:58:07;100089.78;;;9.31;100.00
28935;BME280;16044;52.726;-2.108;2023-04-06T05:00:35;100087.91;;;9.31;100.00
28935;BME280;16044;52.726;-2.108;2023-04-06T05:03:03;100087.41;;;9.28;100.00
28935;BME280;16044;52.726;-2.108;2023-04-06T05:05:31;100082.38;;;9.25;100.00
28935;BME280;16044;52.726;-2.108;2023-04-06T05:07:58;100082.22;;;9.26;100.00
28935;BME280;16044;52.726;-2.108;2023-04-06T05:10:25;100084.72;;;9.28;100.00
28935;BME280;16044;52.726;-2.108;2023-04-06T05:12:52;100088.44;;;9.27;100.00
28935;BME280;16044;52.726;-2.108;2023-04-06T05:15:19;100096.19;;;9.30;100.00
28935;BME280;16044;52.726;-2.108;2023-04-06T05:17:47;100102.63;;;9.29;100.00
28935;BME280;16044;52.726;-2.108;2023-04-06T05:20:14;100117.00;;;9.29;100.00
28935;BME280;16044;52.726;-2.108;2023-04-06T05:22:41;100105.34;;;9.29;100.00
28935;BME280;16044;52.726;-2.108;2023-04-06T05:25:08;100103.28;;;9.31;100.00
28935;BME280;16044;52.726;-2.108;2023-04-06T05:27:35;100113.44;;;9.29;100.00
28935;BME280;16044;52.726;-2.108;2023-04-06T05:30:02;100108.69;;;9.31;100.00
28935;BME280;16044;52.726;-2.108;2023-04-06T05:32:30;100108.69;;;9.31;100.00
28935;BME280;16044;52.726;-2.108;2023-04-06T05:34:57;100105.34;;;9.29;100.00
28935;BME280;16044;52.726;-2.108;2023-04-06T05:37:24;100106.34;;;9.28;100.00
28935;BME280;16044;52.726;-2.108;2023-04-06T05:39:51;100100.41;;;9.32;100.00
28935;BME280;16044;52.726;-2.108;2023-04-06T05:42:18;100104.78;;;9.33;100.00
28935;BME280;16044;52.726;-2.108;2023-04-06T05:44:45;100103.78;;;9.34;100.00
28935;BME280;16044;52.726;-2.108;2023-04-06T05:47:12;100103.97;;;9.33;100.00
28935;BME280;16044;52.726;-2.108;2023-04-06T05:49:39;100107.38;;;9.27;100.00
28935;BME280;16044;52.726;-2.108;2023-04-06T05:52:08;100109.09;;;9.20;100.00
28935;BME280;16044;52.726;-2.108;2023-04-06T05:54:36;100110.56;;;9.30;100.00
28935;BME280;16044;52.726;-2.108;2023-04-06T05:57:03;100119.88;;;9.28;100.00
28935;BME280;16044;52.726;-2.108;2023-04-06T05:59:31;100123.94;;;9.32;100.00
28935;BME280;16044;52.726;-2.108;2023-04-06T06:01:58;100122.88;;;9.33;100.00
28935;BME280;16044;52.726;-2.108;2023-04-06T06:04:27;100130.16;;;9.32;100.00
28935;BME280;16044;52.726;-2.108;2023-04-06T06:06:54;100133.94;;;9.23;100.00
28935;BME280;16044;52.726;-2.108;2023-04-06T06:09:21;100141.81;;;9.33;100.00
28935;BME280;16044;52.726;-2.108;2023-04-06T06:11:49;100141.50;;;9.28;100.00
28935;BME280;16044;52.726;-2.108;2023-04-06T06:14:17;100150.28;;;9.30;100.00
28935;BME280;16044;52.726;-2.108;2023-04-06T06:16:44;100144.88;;;9.30;100.00
28935;BME280;16044;52.726;-2.108;2023-04-06T06:19:11;100149.63;;;9.28;100.00
28935;BME280;16044;52.726;-2.108;2023-04-06T06:21:41;100139.19;;;9.16;100.00
28935;BME280;16044;52.726;-2.108;2023-04-06T06:24:08;100147.44;;;9.23;100.00
28935;BME280;16044;52.726;-2.108;2023-04-06T06:26:36;100159.66;;;9.19;100.00
28935;BME280;16044;52.726;-2.108;2023-04-06T06:29:03;100158.78;;;9.18;100.00
28935;BME280;16044;52.726;-2.108;2023-04-06T06:31:32;100165.88;;;9.20;100.00
28935;BME280;16044;52.726;-2.108;2023-04-06T06:33:59;100174.34;;;9.16;100.00
28935;BME280;16044;52.726;-2.108;2023-04-06T06:36:26;100171.47;;;9.18;100.00
28935;BME280;16044;52.726;-2.108;2023-04-06T06:38:53;100182.63;;;9.23;100.00
28935;BME280;16044;52.726;-2.108;2023-04-06T06:41:20;100176.72;;;9.20;100.00
28935;BME280;16044;52.726;-2.108;2023-04-06T06:43:48;100184.28;;;9.24;100.00
28935;BME280;16044;52.726;-2.108;2023-04-06T06:46:14;100179.75;;;9.25;100.00
28935;BME280;16044;52.726;-2.108;2023-04-06T06:48:42;100186.53;;;9.21;100.00
28935;BME280;16044;52.726;-2.108;2023-04-06T06:51:08;100197.50;;;9.19;100.00
28935;BME280;16044;52.726;-2.108;2023-04-06T06:53:38;100189.22;;;9.21;100.00
28935;BME280;16044;52.726;-2.108;2023-04-06T06:56:05;100185.16;;;9.25;100.00
28935;BME280;16044;52.726;-2.108;2023-04-06T06:58:32;100186.19;;;9.15;100.00
28935;BME280;16044;52.726;-2.108;2023-04-06T07:01:00;100194.66;;;9.12;100.00
28935;BME280;16044;52.726;-2.108;2023-04-06T07:03:27;100196.19;;;9.15;100.00
28935;BME280;16044;52.726;-2.108;2023-04-06T07:05:55;100194.63;;;9.21;100.00
28935;BME280;16044;52.726;-2.108;2023-04-06T07:08:23;100205.09;;;9.24;100.00
28935;BME280;16044;52.726;-2.108;2023-04-06T07:10:52;100197.13;;;9.30;100.00
28935;BME280;16044;52.726;-2.108;2023-04-06T07:13:20;100201.16;;;9.34;100.00
28935;BME280;16044;52.726;-2.108;2023-04-06T07:15:50;100209.78;;;9.38;100.00
28935;BME280;16044;52.726;-2.108;2023-04-06T07:18:18;100206.69;;;9.41;100.00
28935;BME280;16044;52.726;-2.108;2023-04-06T07:20:46;100217.72;;;9.40;100.00
28935;BME280;16044;52.726;-2.108;2023-04-06T07:23:13;100226.50;;;9.33;100.00
28935;BME280;16044;52.726;-2.108;2023-04-06T07:25:41;100224.97;;;9.39;100.00
28935;BME280;16044;52.726;-2.108;2023-04-06T07:28:08;100231.56;;;9.36;100.00
28935;BME280;16044;52.726;-2.108;2023-04-06T07:30:36;100239.53;;;9.30;100.00
28935;BME280;16044;52.726;-2.108;2023-04-06T07:33:05;100242.22;;;9.30;100.00
28935;BME280;16044;52.726;-2.108;2023-04-06T07:35:32;100242.94;;;9.32;100.00
28935;BME280;16044;52.726;-2.108;2023-04-06T07:37:59;100246.47;;;9.32;100.00
28935;BME280;16044;52.726;-2.108;2023-04-06T07:40:26;100230.25;;;9.24;100.00
28935;BME280;16044;52.726;-2.108;2023-04-06T07:42:54;100236.16;;;9.28;100.00
28935;BME280;16044;52.726;-2.108;2023-04-06T07:45:23;100227.22;;;9.27;100.00
28935;BME280;16044;52.726;-2.108;2023-04-06T07:47:50;100225.72;;;9.16;100.00
28935;BME280;16044;52.726;-2.108;2023-04-06T07:50:17;100228.75;;;9.22;100.00
28935;BME280;16044;52.726;-2.108;2023-04-06T07:52:44;100234.81;;;9.24;100.00
28935;BME280;16044;52.726;-2.108;2023-04-06T07:55:11;100238.69;;;9.29;100.00
28935;BME280;16044;52.726;-2.108;2023-04-06T07:57:38;100236.50;;;9.33;100.00
28935;BME280;16044;52.726;-2.108;2023-04-06T08:00:06;100243.06;;;9.39;100.00
28935;BME280;16044;52.726;-2.108;2023-04-06T08:02:35;100239.16;;;9.41;100.00
28935;BME280;16044;52.726;-2.108;2023-04-06T08:05:02;100243.88;;;9.47;100.00
28935;BME280;16044;52.726;-2.108;2023-04-06T08:07:29;100236.06;;;9.52;100.00
28935;BME280;16044;52.726;-2.108;2023-04-06T08:09:56;100242.34;;;9.45;100.00
28935;BME280;16044;52.726;-2.108;2023-04-06T08:12:23;100235.56;;;9.49;100.00
28935;BME280;16044;52.726;-2.108;2023-04-06T08:14:50;100235.72;;;9.55;100.00
28935;BME280;16044;52.726;-2.108;2023-04-06T08:17:17;100244.00;;;9.54;100.00
28935;BME280;16044;52.726;-2.108;2023-04-06T08:19:44;100245.00;;;9.61;100.00
28935;BME280;16044;52.726;-2.108;2023-04-06T08:22:12;100245.50;;;9.65;100.00
28935;BME280;16044;52.726;-2.108;2023-04-06T08:24:39;100246.31;;;9.73;100.00
28935;BME280;16044;52.726;-2.108;2023-04-06T08:27:06;100254.88;;;9.77;100.00
28935;BME280;16044;52.726;-2.108;2023-04-06T08:29:34;100256.53;;;9.86;100.00
28935;BME280;16044;52.726;-2.108;2023-04-06T08:32:01;100257.16;;;9.97;100.00
28935;BME280;16044;52.726;-2.108;2023-04-06T08:34:32;100257.44;;;10.02;100.00
28935;BME280;16044;52.726;-2.108;2023-04-06T08:37:00;100257.41;;;10.10;100.00
28935;BME280;16044;52.726;-2.108;2023-04-06T08:39:27;100254.47;;;10.20;100.00
28935;BME280;16044;52.726;-2.108;2023-04-06T08:41:57;100255.56;;;10.33;100.00
28935;BME280;16044;52.726;-2.108;2023-04-06T08:44:26;100258.25;;;10.42;100.00
28935;BME280;16044;52.726;-2.108;2023-04-06T08:46:54;100264.25;;;10.52;100.00
28935;BME280;16044;52.726;-2.108;2023-04-06T08:49:21;100266.81;;;10.68;100.00
28935;BME280;16044;52.726;-2.108;2023-04-06T08:51:49;100267.34;;;10.87;100.00
28935;BME280;16044;52.726;-2.108;2023-04-06T08:54:17;100271.63;;;10.96;100.00
28935;BME280;16044;52.726;-2.108;2023-04-06T08:56:44;100270.53;;;11.05;100.00
28935;BME280;16044;52.726;-2.108;2023-04-06T08:59:12;100262.03;;;11.08;100.00
28935;BME280;16044;52.726;-2.108;2023-04-06T09:01:41;100268.59;;;11.14;99.58
28935;BME280;16044;52.726;-2.108;2023-04-06T09:04:10;100266.63;;;11.23;99.88
28935;BME280;16044;52.726;-2.108;2023-04-06T09:06:39;100271.03;;;11.39;100.00
28935;BME280;16044;52.726;-2.108;2023-04-06T09:09:07;100266.13;;;11.49;97.85
28935;BME280;16044;52.726;-2.108;2023-04-06T09:11:45;100265.59;;;11.68;95.62
28935;BME280;16044;52.726;-2.108;2023-04-06T09:14:16;100264.72;;;11.68;94.76
28935;BME280;16044;52.726;-2.108;2023-04-06T09:16:45;100281.00;;;11.68;94.24
28935;BME280;16044;52.726;-2.108;2023-04-06T09:19:12;100273.91;;;11.67;92.71
28935;BME280;16044;52.726;-2.108;2023-04-06T09:21:39;100268.19;;;11.62;93.05
28935;BME280;16044;52.726;-2.108;2023-04-06T09:24:07;100271.56;;;11.49;91.39
28935;BME280;16044;52.726;-2.108;2023-04-06T09:26:46;100273.16;;;11.28;91.83
28935;BME280;16044;52.726;-2.108;2023-04-06T09:29:24;100277.94;;;11.11;93.12
28935;BME280;16044;52.726;-2.108;2023-04-06T09:32:04;100275.88;;;10.99;93.60
28935;BME280;16044;52.726;-2.108;2023-04-06T09:34:33;100276.31;;;10.87;93.08
28935;BME280;16044;52.726;-2.108;2023-04-06T09:37:00;100282.00;;;10.78;92.79
28935;BME280;16044;52.726;-2.108;2023-04-06T09:39:39;100292.84;;;10.78;91.90
28935;BME280;16044;52.726;-2.108;2023-04-06T09:42:06;100282.34;;;10.75;91.54
28935;BME280;16044;52.726;-2.108;2023-04-06T09:44:33;100278.09;;;10.95;93.45
28935;BME280;16044;52.726;-2.108;2023-04-06T09:47:00;100284.50;;;11.17;93.25
28935;BME280;16044;52.726;-2.108;2023-04-06T09:49:30;100288.78;;;11.26;88.94
28935;BME280;16044;52.726;-2.108;2023-04-06T09:52:06;100294.69;;;11.30;85.50
28935;BME280;16044;52.726;-2.108;2023-04-06T09:54:34;100294.41;;;11.25;84.05
28935;BME280;16044;52.726;-2.108;2023-04-06T09:57:16;100302.09;;;11.21;85.06
28935;BME280;16044;52.726;-2.108;2023-04-06T10:00:00;100308.22;;;11.15;86.43
28935;BME280;16044;52.726;-2.108;2023-04-06T10:03:03;100306.66;;;11.21;85.11
28935;BME280;16044;52.726;-2.108;2023-04-06T10:05:45;100310.03;;;11.23;85.74
28935;BME280;16044;52.726;-2.108;2023-04-06T10:08:18;100309.28;;;11.29;82.23
28935;BME280;16044;52.726;-2.108;2023-04-06T10:10:47;100312.56;;;11.39;81.01
28935;BME280;16044;52.726;-2.108;2023-04-06T10:13:15;100307.44;;;11.44;80.30
28935;BME280;16044;52.726;-2.108;2023-04-06T10:15:43;100314.97;;;11.34;78.87
28935;BME280;16044;52.726;-2.108;2023-04-06T10:18:11;100321.16;;;11.28;76.25
28935;BME280;16044;52.726;-2.108;2023-04-06T10:20:57;100308.50;;;11.05;74.39
28935;BME280;16044;52.726;-2.108;2023-04-06T10:23:47;100317.50;;;11.06;74.55
28935;BME280;16044;52.726;-2.108;2023-04-06T10:26:19;100316.78;;;11.27;76.34
28935;BME280;16044;52.726;-2.108;2023-04-06T10:28:49;100314.44;;;11.54;76.43
28935;BME280;16044;52.726;-2.108;2023-04-06T10:31:25;100321.19;;;11.58;75.28
28935;BME280;16044;52.726;-2.108;2023-04-06T10:33:55;100322.88;;;11.59;78.14
28935;BME280;16044;52.726;-2.108;2023-04-06T10:36:32;100324.06;;;11.41;77.67
28935;BME280;16044;52.726;-2.108;2023-04-06T10:39:03;100324.81;;;11.35;77.51
28935;BME280;16044;52.726;-2.108;2023-04-06T10:41:44;100326.38;;;11.15;78.21
28935;BME280;16044;52.726;-2.108;2023-04-06T10:44:20;100329.03;;;11.23;79.18
28935;BME280;16044;52.726;-2.108;2023-04-06T10:46:56;100325.94;;;11.26;80.80
28935;BME280;16044;52.726;-2.108;2023-04-06T10:49:27;100324.06;;;11.41;79.60
28935;BME280;16044;52.726;-2.108;2023-04-06T10:51:55;100324.84;;;11.50;76.91
28935;BME280;16044;52.726;-2.108;2023-04-06T10:54:24;100328.03;;;11.68;75.02
28935;BME280;16044;52.726;-2.108;2023-04-06T10:56:52;100336.81;;;11.85;72.50
28935;BME280;16044;52.726;-2.108;2023-04-06T10:59:20;100338.69;;;12.00;72.26
28935;BME280;16044;52.726;-2.108;2023-04-06T11:01:48;100334.19;;;12.07;72.20
28935;BME280;16044;52.726;-2.108;2023-04-06T11:04:17;100328.91;;;12.20;72.47
28935;BME280;16044;52.726;-2.108;2023-04-06T11:06:48;100330.34;;;12.38;72.68
28935;BME280;16044;52.726;-2.108;2023-04-06T11:09:29;100334.53;;;12.55;71.84
28935;BME280;16044;52.726;-2.108;2023-04-06T11:11:58;100338.78;;;12.43;69.32
28935;BME280;16044;52.726;-2.108;2023-04-06T11:14:25;100341.84;;;12.18;69.06
28935;BME280;16044;52.726;-2.108;2023-04-06T11:16:53;100350.84;;;12.04;68.15
28935;BME280;16044;52.726;-2.108;2023-04-06T11:19:20;100352.38;;;11.92;67.54
28935;BME280;16044;52.726;-2.108;2023-04-06T11:21:48;100353.88;;;11.94;68.79
28935;BME280;16044;52.726;-2.108;2023-04-06T11:24:22;100344.53;;;11.97;69.88
28935;BME280;16044;52.726;-2.108;2023-04-06T11:26:58;100346.66;;;12.01;70.41
28935;BME280;16044;52.726;-2.108;2023-04-06T11:29:29;100349.34;;;11.86;68.75
28935;BME280;16044;52.726;-2.108;2023-04-06T11:32:02;100349.06;;;11.81;68.58
28935;BME280;16044;52.726;-2.108;2023-04-06T11:34:32;100355.66;;;11.72;67.77
28935;BME280;16044;52.726;-2.108;2023-04-06T11:37:07;100350.00;;;11.74;68.38
28935;BME280;16044;52.726;-2.108;2023-04-06T11:39:40;100353.47;;;11.82;69.77
28935;BME280;16044;52.726;-2.108;2023-04-06T11:42:21;100364.16;;;12.14;69.90
28935;BME280;16044;52.726;-2.108;2023-04-06T11:44:51;100353.91;;;12.31;70.07
28935;BME280;16044;52.726;-2.108;2023-04-06T11:47:34;100352.97;;;12.38;69.78
28935;BME280;16044;52.726;-2.108;2023-04-06T11:50:12;100360.75;;;12.26;68.38
28935;BME280;16044;52.726;-2.108;2023-04-06T11:52:41;100357.47;;;12.31;68.57
28935;BME280;16044;52.726;-2.108;2023-04-06T11:55:12;100370.63;;;12.13;68.41
28935;BME280;16044;52.726;-2.108;2023-04-06T11:57:42;100360.97;;;12.10;68.55
28935;BME280;16044;52.726;-2.108;2023-04-06T12:00:10;100362.81;;;12.24;69.97
28935;BME280;16044;52.726;-2.108;2023-04-06T12:02:39;100360.00;;;12.33;69.33
28935;BME280;16044;52.726;-2.108;2023-04-06T12:05:06;100349.06;;;12.47;69.56
28935;BME280;16044;52.726;-2.108;2023-04-06T12:07:35;100360.28;;;12.59;67.48
28935;BME280;16044;52.726;-2.108;2023-04-06T12:10:03;100361.63;;;12.70;67.00
28935;BME280;16044;52.726;-2.108;2023-04-06T12:12:30;100366.78;;;12.80;68.49
28935;BME280;16044;52.726;-2.108;2023-04-06T12:14:58;100368.31;;;12.89;67.14
28935;BME280;16044;52.726;-2.108;2023-04-06T12:17:25;100365.47;;;12.76;66.88
28935;BME280;16044;52.726;-2.108;2023-04-06T12:19:52;100374.94;;;12.80;67.57
28935;BME280;16044;52.726;-2.108;2023-04-06T12:22:19;100376.16;;;12.56;71.18
28935;BME280;16044;52.726;-2.108;2023-04-06T12:24:46;100377.63;;;12.58;71.99
28935;BME280;16044;52.726;-2.108;2023-04-06T12:27:13;100383.69;;;12.39;71.65
28935;BME280;16044;52.726;-2.108;2023-04-06T12:29:40;100394.63;;;12.45;70.80
28935;BME280;16044;52.726;-2.108;2023-04-06T12:32:07;100388.34;;;12.45;67.24
28935;BME280;16044;52.726;-2.108;2023-04-06T12:34:34;100383.06;;;12.58;69.22
28935;BME280;16044;52.726;-2.108;2023-04-06T12:37:02;100394.13;;;12.57;65.91
28935;BME280;16044;52.726;-2.108;2023-04-06T12:39:29;100393.59;;;12.46;66.50
28935;BME280;16044;52.726;-2.108;2023-04-06T12:41:56;100384.84;;;12.51;66.16
28935;BME280;16044;52.726;-2.108;2023-04-06T12:44:23;100398.66;;;12.50;66.05
28935;BME280;16044;52.726;-2.108;2023-04-06T12:46:52;100387.06;;;12.62;66.62